Aviation Digital Data Service (ADDS)

Output produced by METARs form (1236 UTC 26 February 2017)
found at http://aviationweather.gov/adds/metars/
 
KPHX 261120Z 2612/2712 09006KT P6SM BKN110 OVC180 
     FM261800 26008KT P6SM SCT080 BKN120 
     FM270000 27006KT P6SM FEW070 
     FM270600 11008KT P6SM SCT060 SCT250